| time (UTC) | temp C | wind direction | speed KPH | gust KPH | rain 1hr cm | rain 24hr cm | rain mn cm | humidity % | barometer mb |
| 20260507165601 | 18 | 155 | 1.6 | 3.2 | 0.00 | 0.05 | 0.05 | 65 | 1013.8 |
| 20260507164520 | 18 | 307 | 0.0 | 1.6 | 0.00 | 0.30 | 0.05 | 66 | 1013.7 |
| 20260507163523 | 17 | 233 | 4.8 | 6.4 | 0.00 | 0.30 | 0.05 | 67 | 1013.7 |
| 20260507162517 | 17 | 232 | 8.0 | 9.7 | 0.00 | 0.30 | 0.05 | 67 | 1013.8 |
| 20260507161542 | 17 | 219 | 4.8 | 6.4 | 0.00 | 0.30 | 0.05 | 67 | 1013.7 |
| 20260507160535 | 17 | 187 | 9.7 | 11.3 | 0.00 | 0.30 | 0.05 | 68 | 1013.7 |
| 20260507155519 | 18 | 0.0 | 0.0 | 0.00 | 0.30 | 0.05 | 64 | 1013.8 | |
| 20260507154523 | 18 | 0.0 | 0.0 | 0.00 | 0.30 | 0.05 | 61 | 1013.8 | |
| 20260507153517 | 18 | 197 | 9.7 | 12.9 | 0.00 | 0.30 | 0.05 | 55 | 1013.7 |
| 20260507152541 | 18 | 227 | 14.5 | 16.1 | 0.00 | 0.30 | 0.05 | 49 | 1013.5 |
| 20260507151514 | 19 | 242 | 14.5 | 17.7 | 0.00 | 0.30 | 0.05 | 48 | 1013.2 |
| 20260507150518 | 20 | 233 | 16.1 | 19.3 | 0.00 | 0.30 | 0.05 | 51 | 1013.0 |
| 20260507145542 | 19 | 215 | 14.5 | 20.9 | 0.00 | 0.30 | 0.05 | 55 | 1012.7 |
| 20260507144516 | 19 | 213 | 19.3 | 25.7 | 0.00 | 0.30 | 0.05 | 60 | 1012.6 |
| 20260507143600 | 19 | 198 | 16.1 | 20.9 | 0.00 | 0.30 | 0.05 | 64 | 1012.5 |
| 20260507142524 | 20 | 186 | 17.7 | 22.5 | 0.00 | 0.30 | 0.05 | 63 | 1012.5 |
| 20260507141518 | 20 | 212 | 16.1 | 24.1 | 0.00 | 0.30 | 0.05 | 57 | 1012.4 |
| 20260507140522 | 20 | 218 | 19.3 | 22.5 | 0.00 | 0.30 | 0.05 | 62 | 1012.5 |
| 20260507135516 | 20 | 219 | 17.7 | 19.3 | 0.00 | 0.30 | 0.05 | 54 | 1012.5 |
| 20260507134520 | 20 | 205 | 12.9 | 17.7 | 0.00 | 0.30 | 0.05 | 54 | 1012.5 |
| 20260507133524 | 20 | 217 | 19.3 | 24.1 | 0.00 | 0.30 | 0.05 | 59 | 1012.6 |
| 20260507132518 | 20 | 0.0 | 0.0 | 0.00 | 0.30 | 0.05 | 55 | 1012.7 | |
| 20260507131541 | 20 | 196 | 12.9 | 19.3 | 0.00 | 0.30 | 0.05 | 62 | 1012.6 |
| 20260507130516 | 20 | 189 | 17.7 | 22.5 | 0.00 | 0.30 | 0.05 | 62 | 1012.7 |
| 20260507125520 | 20 | 203 | 14.5 | 20.9 | 0.00 | 0.30 | 0.05 | 69 | 1012.8 |
| 20260507124523 | 20 | 198 | 17.7 | 20.9 | 0.00 | 0.30 | 0.05 | 65 | 1012.8 |
| 20260507123517 | 20 | 213 | 17.7 | 22.5 | 0.00 | 0.30 | 0.05 | 64 | 1012.8 |
| 20260507122521 | 20 | 206 | 17.7 | 24.1 | 0.00 | 0.30 | 0.05 | 63 | 1012.8 |
| 20260507121535 | 20 | 190 | 17.7 | 24.1 | 0.00 | 0.30 | 0.05 | 66 | 1012.8 |
| 20260507120519 | 20 | 207 | 16.1 | 22.5 | 0.00 | 0.30 | 0.05 | 69 | 1012.8 |
| 20260507115535 | 19 | 201 | 22.5 | 24.1 | 0.00 | 0.30 | 0.05 | 64 | 1013.0 |
| 20260507114518 | 19 | 195 | 19.3 | 24.1 | 0.00 | 0.30 | 0.05 | 65 | 1013.0 |
| 20260507113521 | 19 | 203 | 19.3 | 22.5 | 0.00 | 0.33 | 0.05 | 65 | 1013.0 |
| 20260507112523 | 19 | 198 | 16.1 | 20.9 | 0.00 | 0.33 | 0.05 | 65 | 1013.1 |
| 20260507111515 | 19 | 186 | 19.3 | 24.1 | 0.00 | 0.33 | 0.05 | 65 | 1013.2 |
| 20260507110518 | 19 | 197 | 17.7 | 20.9 | 0.00 | 0.33 | 0.05 | 62 | 1013.1 |
| 20260507105520 | 18 | 193 | 17.7 | 22.5 | 0.00 | 0.33 | 0.05 | 64 | 1013.3 |
| 20260507104523 | 18 | 194 | 19.3 | 27.4 | 0.00 | 0.33 | 0.05 | 65 | 1013.3 |
| 20260507103514 | 19 | 201 | 19.3 | 25.7 | 0.00 | 0.33 | 0.05 | 62 | 1013.4 |
| 20260507102537 | 19 | 221 | 19.3 | 24.1 | 0.00 | 0.33 | 0.05 | 64 | 1013.4 |
| 20260507101519 | 19 | 198 | 22.5 | 29.0 | 0.00 | 0.33 | 0.05 | 58 | 1013.5 |
| 20260507100522 | 19 | 185 | 17.7 | 22.5 | 0.03 | 0.33 | 0.05 | 64 | 1013.3 |
| 20260507095525 | 19 | 182 | 16.1 | 20.9 | 0.03 | 0.33 | 0.05 | 65 | 1013.4 |
| 20260507094517 | 18 | 193 | 20.9 | 27.4 | 0.03 | 0.33 | 0.05 | 65 | 1013.3 |
| 20260507093519 | 19 | 188 | 19.3 | 25.7 | 0.03 | 0.33 | 0.05 | 65 | 1013.3 |
| 20260507092548 | 18 | 208 | 24.1 | 29.0 | 0.03 | 0.36 | 0.05 | 64 | 1013.2 |
| 20260507091524 | 18 | 0.0 | 0.0 | 0.03 | 0.36 | 0.03 | 65 | 1013.3 | |
| 20260507090516 | 18 | 0.0 | 0.0 | 0.00 | 0.33 | 0.03 | 69 | 1013.2 | |
| 20260507085539 | 18 | 0.0 | 0.0 | 0.00 | 0.33 | 0.03 | 68 | 1013.2 | |
| 20260507084522 | 18 | 180 | 19.3 | 25.7 | 0.00 | 0.33 | 0.03 | 69 | 1013.2 |
| 20260507083524 | 18 | 193 | 17.7 | 25.7 | 0.00 | 0.33 | 0.03 | 66 | 1013.2 |
| 20260507082536 | 18 | 202 | 22.5 | 29.0 | 0.00 | 0.36 | 0.03 | 67 | 1013.1 |
| 20260507081519 | 18 | 173 | 20.9 | 27.4 | 0.00 | 0.36 | 0.03 | 68 | 1013.0 |
| 20260507080601 | 18 | 190 | 16.1 | 22.5 | 0.00 | 0.41 | 0.03 | 71 | 1013.0 |
| 20260507075544 | 18 | 172 | 14.5 | 19.3 | 0.00 | 0.46 | 0.03 | 70 | 1013.0 |
| 20260507074516 | 18 | 183 | 14.5 | 17.7 | 0.00 | 0.46 | 0.03 | 73 | 1013.0 |
| 20260507073518 | 18 | 182 | 12.9 | 19.3 | 0.00 | 0.48 | 0.03 | 71 | 1012.8 |
| 20260507072541 | 18 | 165 | 8.0 | 11.3 | 0.00 | 0.51 | 0.03 | 75 | 1012.8 |
| 20260507071544 | 17 | 165 | 12.9 | 17.7 | 0.00 | 0.56 | 0.03 | 76 | 1012.8 |
| 20260507070536 | 17 | 0.0 | 0.0 | 0.00 | 0.58 | 0.03 | 78 | 1012.8 | |
| 20260507065618 | 17 | 174 | 11.3 | 17.7 | 0.00 | 0.61 | 0.03 | 77 | 1012.6 |
| 20260507064520 | 18 | 0.0 | 0.0 | 0.00 | 0.61 | 0.03 | 76 | 1012.6 | |
| 20260507063523 | 17 | 0.0 | 0.0 | 0.00 | 0.66 | 0.03 | 77 | 1012.6 | |
| 20260507062516 | 17 | 161 | 9.7 | 11.3 | 0.00 | 0.69 | 0.03 | 79 | 1012.4 |
| 20260507061518 | 17 | 91 | 4.8 | 8.0 | 0.00 | 0.71 | 0.03 | 80 | 1012.4 |
| 20260507060521 | 16 | 88 | 6.4 | 6.4 | 0.00 | 0.71 | 0.03 | 84 | 1012.5 |
| 20260507055523 | 16 | 148 | 8.0 | 11.3 | 0.00 | 0.71 | 0.03 | 85 | 1012.4 |
| 20260507054515 | 16 | 90 | 6.4 | 8.0 | 0.00 | 0.74 | 0.03 | 83 | 1012.3 |
| 20260507053518 | 16 | 101 | 8.0 | 9.7 | 0.00 | 0.76 | 0.03 | 86 | 1012.1 |
| 20260507052520 | 15 | 102 | 8.0 | 9.7 | 0.00 | 0.97 | 0.03 | 88 | 1012.1 |
| 20260507051543 | 15 | 139 | 4.8 | 4.8 | 0.00 | 0.97 | 0.03 | 89 | 1012.1 |
| 20260507050515 | 15 | 96 | 4.8 | 4.8 | 0.00 | 0.97 | 0.03 | 90 | 1011.9 |
| 20260507045538 | 14 | 97 | 6.4 | 6.4 | 0.00 | 0.97 | 0.03 | 92 | 1011.8 |
| 20260507044520 | 14 | 168 | 3.2 | 4.8 | 0.03 | 0.97 | 0.03 | 92 | 1011.7 |
| 20260507043522 | 15 | 178 | 3.2 | 3.2 | 0.03 | 0.97 | 0.03 | 91 | 1011.7 |
| 20260507042516 | 15 | 123 | 3.2 | 4.8 | 0.03 | 0.97 | 0.03 | 92 | 1011.6 |
| 20260507041540 | 15 | 0.0 | 0.0 | 0.03 | 0.97 | 0.03 | 90 | 1011.6 | |
| 20260507040520 | 15 | 203 | 1.6 | 1.6 | 0.03 | 0.97 | 0.03 | 88 | 1011.4 |
| 20260507035522 | 15 | 70 | 4.8 | 4.8 | 0.00 | 0.97 | 0.00 | 86 | 1011.4 |
| 20260507034514 | 15 | 71 | 6.4 | 6.4 | 0.00 | 0.97 | 0.00 | 87 | 1011.3 |
| 20260507033517 | 15 | 0.0 | 0.0 | 0.00 | 0.97 | 0.00 | 86 | 1011.3 | |
| 20260507032520 | 15 | 84 | 6.4 | 8.0 | 0.00 | 0.97 | 0.00 | 86 | 1011.4 |
| 20260507031522 | 16 | 81 | 6.4 | 6.4 | 0.00 | 0.97 | 0.00 | 85 | 1011.4 |
| 20260507030515 | 16 | 65 | 6.4 | 8.0 | 0.00 | 0.97 | 0.00 | 86 | 1011.4 |
| 20260507025517 | 15 | 69 | 6.4 | 6.4 | 0.00 | 0.97 | 0.00 | 87 | 1011.4 |
| 20260507024540 | 16 | 56 | 8.0 | 9.7 | 0.00 | 0.97 | 0.00 | 85 | 1011.3 |
| 20260507023542 | 15 | 61 | 11.3 | 14.5 | 0.00 | 0.97 | 0.00 | 86 | 1011.2 |
| 20260507022524 | 15 | 61 | 11.3 | 12.9 | 0.00 | 0.97 | 0.00 | 87 | 1011.4 |
| 20260507021517 | 15 | 63 | 4.8 | 8.0 | 0.00 | 0.97 | 0.00 | 88 | 1011.4 |
| 20260507020519 | 15 | 115 | 3.2 | 4.8 | 0.00 | 0.97 | 0.00 | 86 | 1011.4 |
| 20260507015542 | 16 | 71 | 4.8 | 6.4 | 0.00 | 0.97 | 0.00 | 86 | 1011.4 |
| 20260507014524 | 15 | 71 | 3.2 | 6.4 | 0.00 | 0.97 | 0.00 | 87 | 1011.4 |
| 20260507013517 | 16 | 28 | 4.8 | 4.8 | 0.00 | 0.97 | 0.00 | 86 | 1011.4 |
| 20260507012519 | 16 | 104 | 1.6 | 4.8 | 0.00 | 0.97 | 0.00 | 86 | 1011.4 |
| 20260507011522 | 15 | 17 | 3.2 | 4.8 | 0.00 | 0.97 | 0.00 | 86 | 1011.3 |
| 20260507010524 | 15 | 200 | 1.6 | 3.2 | 0.00 | 0.97 | 0.00 | 85 | 1011.4 |
| 20260507005517 | 15 | 96 | 4.8 | 4.8 | 0.00 | 0.97 | 0.00 | 84 | 1011.4 |
| 20260507004539 | 15 | 105 | 4.8 | 4.8 | 0.00 | 0.97 | 0.00 | 83 | 1011.4 |
| 20260507003522 | 15 | 96 | 4.8 | 4.8 | 0.00 | 0.97 | 0.00 | 82 | 1011.4 |
| 20260507002524 | 16 | 104 | 6.4 | 6.4 | 0.00 | 0.97 | 0.00 | 84 | 1011.4 |
| 20260507001517 | 16 | 171 | 4.8 | 9.7 | 0.00 | 0.97 | 0.00 | 84 | 1011.4 |
| 20260507000519 | 16 | 154 | 8.0 | 11.3 | 0.00 | 0.97 | 0.00 | 83 | 1011.4 |
| 20260506235522 | 16 | 157 | 8.0 | 9.7 | 0.00 | 0.97 | 0.00 | 84 | 1011.5 |
| 20260506234524 | 15 | 94 | 6.4 | 8.0 | 0.00 | 0.97 | 0.00 | 84 | 1011.6 |
| 20260506233517 | 16 | 83 | 4.8 | 6.4 | 0.00 | 0.97 | 0.00 | 83 | 1011.6 |
| 20260506232519 | 15 | 59 | 4.8 | 8.0 | 0.00 | 0.97 | 0.00 | 83 | 1011.7 |
| 20260506231522 | 15 | 43 | 6.4 | 9.7 | 0.00 | 0.97 | 0.00 | 82 | 1011.8 |
| 20260506230524 | 15 | 64 | 3.2 | 3.2 | 0.00 | 0.97 | 0.00 | 82 | 1012.0 |
| 20260506225517 | 15 | 133 | 6.4 | 9.7 | 0.00 | 0.97 | 0.00 | 83 | 1011.9 |
| 20260506224600 | 15 | 199 | 6.4 | 9.7 | 0.00 | 0.97 | 0.00 | 82 | 1011.7 |
| 20260506223522 | 15 | 96 | 11.3 | 12.9 | 0.00 | 0.97 | 0.00 | 81 | 1011.7 |
| 20260506222524 | 15 | 120 | 6.4 | 6.4 | 0.00 | 0.97 | 0.00 | 81 | 1011.9 |
| 20260506221517 | 15 | 120 | 4.8 | 8.0 | 0.00 | 0.97 | 0.00 | 81 | 1011.7 |
| 20260506220539 | 16 | 125 | 6.4 | 8.0 | 0.00 | 0.97 | 0.00 | 80 | 1011.6 |
| 20260506215522 | 15 | 98 | 6.4 | 8.0 | 0.00 | 0.97 | 0.97 | 80 | 1011.6 |
| 20260506214544 | 15 | 156 | 3.2 | 3.2 | 0.00 | 0.97 | 0.97 | 80 | 1011.6 |
| 20260506213516 | 15 | 10 | 3.2 | 4.8 | 0.00 | 0.97 | 0.97 | 78 | 1011.4 |
| 20260506212519 | 15 | 123 | 4.8 | 6.4 | 0.00 | 0.97 | 0.97 | 78 | 1011.5 |
| 20260506211521 | 16 | 142 | 3.2 | 4.8 | 0.00 | 0.97 | 0.97 | 78 | 1011.4 |
| 20260506210523 | 15 | 153 | 3.2 | 6.4 | 0.00 | 0.97 | 0.97 | 79 | 1011.6 |
| 20260506205515 | 15 | 175 | 1.6 | 3.2 | 0.00 | 0.97 | 0.97 | 79 | 1011.6 |
| 20260506204518 | 16 | 76 | 3.2 | 3.2 | 0.00 | 0.97 | 0.97 | 78 | 1011.6 |
| 20260506203520 | 16 | 124 | 1.6 | 3.2 | 0.00 | 0.97 | 0.97 | 78 | 1011.6 |
| 20260506202523 | 15 | 128 | 3.2 | 3.2 | 0.00 | 0.97 | 0.97 | 78 | 1011.5 |
| 20260506201524 | 16 | 179 | 6.4 | 11.3 | 0.00 | 0.97 | 0.97 | 79 | 1011.4 |
| 20260506200517 | 16 | 205 | 6.4 | 8.0 | 0.00 | 0.97 | 0.97 | 80 | 1011.4 |
| 20260506195519 | 16 | 183 | 9.7 | 11.3 | 0.00 | 0.97 | 0.97 | 83 | 1011.3 |
| 20260506194541 | 16 | 183 | 8.0 | 9.7 | 0.00 | 0.97 | 0.97 | 87 | 1011.2 |
| 20260506193524 | 16 | 204 | 11.3 | 17.7 | 0.00 | 0.97 | 0.97 | 87 | 1011.0 |
| 20260506192516 | 16 | 238 | 9.7 | 14.5 | 0.00 | 0.97 | 0.97 | 86 | 1011.0 |
| 20260506191518 | 16 | 208 | 3.2 | 4.8 | 0.00 | 0.97 | 0.97 | 86 | 1010.8 |
| 20260506190521 | 16 | 212 | 1.6 | 4.8 | 0.00 | 0.97 | 0.97 | 86 | 1010.6 |
| 20260506185523 | 16 | 201 | 4.8 | 6.4 | 0.00 | 0.97 | 0.97 | 85 | 1010.2 |
| 20260506184516 | 16 | 193 | 11.3 | 14.5 | 0.00 | 0.97 | 0.97 | 85 | 1010.1 |
| 20260506183559 | 16 | 177 | 11.3 | 14.5 | 0.00 | 0.97 | 0.97 | 84 | 1010.1 |
| 20260506182520 | 16 | 171 | 8.0 | 12.9 | 0.00 | 0.97 | 0.97 | 85 | 1010.2 |
| 20260506181522 | 16 | 160 | 9.7 | 16.1 | 0.00 | 0.97 | 0.97 | 86 | 1010.3 |
| 20260506180515 | 16 | 127 | 8.0 | 11.3 | 0.00 | 0.97 | 0.97 | 92 | 1010.2 |
| 20260506175537 | 16 | 189 | 4.8 | 8.0 | 0.00 | 0.97 | 0.97 | 92 | 1010.2 |
| 20260506174519 | 16 | 260 | 1.6 | 3.2 | 0.25 | 0.97 | 0.97 | 92 | 1010.1 |
| 20260506173542 | 16 | 228 | 3.2 | 6.4 | 0.25 | 0.97 | 0.97 | 93 | 1010.1 |
| 20260506172524 | 16 | 227 | 12.9 | 17.7 | 0.25 | 0.97 | 0.97 | 93 | 1010.0 |
| 20260506171516 | 16 | 222 | 9.7 | 11.3 | 0.25 | 0.97 | 0.97 | 92 | 1009.9 |
| 20260506170519 | 16 | 232 | 12.9 | 17.7 | 0.25 | 0.97 | 0.97 | 93 | 1009.8 |